TAF KEAT
AMD KEAT 280821Z 2808/2906 VRB04KT P6SM FEW007 SCT060 FM281500 28009KT P6SM BKN200 FM282300 28006KT P6SM SCT080 BKN120=
METAR KEAT
WC KEAT
WS KEAT
WV KEAT